Flood From: 22-02-2018 16:00 Until: 23-02-2018 16:00 warning for: Flood Level: Yellow info button

Although rather usual in this region, locally or potentially dangerous phenomena are expected. (such as local winds, summer thunderstorms, rising streams or high waves) Be aware and pay attention to the latest weather updates, especially if you carry out activities exposed to weather or close to a stream or shoreline. 


Meteo18 Weather Cam more information Meteo18 Weather Cam


Thunder radar more information blitzortung!


Rain radar more information rain snow radar


Visit our other weather sites:

Template documentation
and downloads

And another site



Weather Underground History page Text

Daily Summary for November 14, 2017 Units:  Metric    English   Both
« Previous Day
Next Day »
Daily Weekly Monthly Yearly Custom
  High: Low: Average:
Temperature: -17.8 °C -16.9 °C -15.3 °C
Dew Point: -17.8 °C -17.3 °C -16.2 °C
Humidity: Humidity % 82 % 90 %
Wind Speed: 0 km/h 0 km/h 5.8 km/h
Wind Gust: 0 km/h - -
Wind:- - South
Pressure: 0 hPa 34716.7 hPa -
Precipitation: 0 mm    
Historical Graphs
 
 
Tabular Data for November 14, 2017
Time Temperature Dew Point Pressure Wind Wind Speed Wind Gust Humidity Rainfall Rate (Hourly)
-17.8 °C -17.8 °C 0 hPa Calm     Humidity % 0 mm
00:02 -15.4 °C -16.2 °C 34726.8 hPa North 10.3 km/h 33.6 km/h 90 % 0 mm
00:12 -15.4 °C -16.3 °C 34716.7 hPa NNW 12.9 km/h 33.6 km/h 89 % 0 mm
00:17 -15.4 °C -16.2 °C 34716.7 hPa NNE 15.6 km/h 33.6 km/h 90 % 0 mm
00:22 -15.3 °C -16.2 °C 34716.7 hPa North 12.9 km/h 33.6 km/h 90 % 0 mm
00:27 -15.3 °C -16.2 °C 34716.7 hPa NNW 23.3 km/h 36.2 km/h 90 % 0 mm
00:32 -15.3 °C -16.3 °C 34716.7 hPa West 10.3 km/h 36.2 km/h 89 % 0 mm
00:42 -15.4 °C -16.2 °C 34726.8 hPa NNW 15.6 km/h 33.6 km/h 90 % 0 mm
00:52 -15.4 °C -16.3 °C 34726.8 hPa NE 10.3 km/h 38.8 km/h 90 % 0 mm
00:57 -15.6 °C -16.4 °C 34726.8 hPa North 15.6 km/h 38.8 km/h 90 % 0 mm
01:02 -15.6 °C -16.4 °C 34726.8 hPa NNE 12.9 km/h 36.2 km/h 90 % 0 mm
01:12 -15.7 °C -16.4 °C 34726.8 hPa NE 7.7 km/h 25.9 km/h 91 % 0 mm
01:17 -15.7 °C -16.4 °C 34726.8 hPa NW 23.3 km/h 25.9 km/h 91 % 0 mm
01:22 -15.7 °C -16.4 °C 34726.8 hPa North 7.7 km/h 25.9 km/h 91 % 0 mm
01:27 -15.7 °C -16.4 °C 34726.8 hPa NW 10.3 km/h 25.9 km/h 91 % 0 mm
01:32 -15.7 °C -16.4 °C 34726.8 hPa North 5.1 km/h 25.9 km/h 91 % 0 mm
01:37 -15.7 °C -16.4 °C 34726.8 hPa NNW 10.3 km/h 23.3 km/h 91 % 0 mm
01:47 -15.7 °C -16.4 °C 34726.8 hPa NNW 7.7 km/h 23.3 km/h 91 % 0 mm
01:52 -15.7 °C -16.4 °C 34726.8 hPa NNE 20.8 km/h 23.3 km/h 91 % 0 mm
01:57 -15.7 °C -16.4 °C 34740.4 hPa NNE 18.2 km/h 23.3 km/h 92 % 0 mm
02:02 -15.7 °C -16.4 °C 34740.4 hPa NNE 7.7 km/h 23.3 km/h 91 % 0 mm
02:12 -15.8 °C -16.5 °C 34740.4 hPa Calm   23.3 km/h 91 % 0 mm
02:17 -15.8 °C -16.6 °C 34740.4 hPa ENE 2.6 km/h 12.9 km/h 91 % 0 mm
02:22 -15.9 °C -16.7 °C 34750.5 hPa East 5.1 km/h 10.3 km/h 91 % 0 mm
02:27 -16 °C -16.7 °C 34750.5 hPa Calm   5.1 km/h 92 % 0 mm
02:32 -15.9 °C -16.6 °C 34750.5 hPa Calm   5.1 km/h 92 % 0 mm
02:42 -15.9 °C -16.5 °C 34750.5 hPa Calm   5.1 km/h 93 % 0 mm
02:47 -15.9 °C -16.5 °C 34750.5 hPa Calm   5.1 km/h 93 % 0 mm
02:52 -15.9 °C -16.4 °C 34750.5 hPa Calm   7.7 km/h 93 % 0 mm
02:57 -15.9 °C -16.4 °C 34750.5 hPa NNE 2.6 km/h 10.3 km/h 93 % 0 mm
03:02 -15.8 °C -16.3 °C 34750.5 hPa NNE 7.7 km/h 10.3 km/h 93 % 0 mm
03:12 -15.7 °C -16.3 °C 34750.5 hPa NNE 12.9 km/h 15.6 km/h 93 % 0 mm
03:17 -15.7 °C -16.3 °C 34750.5 hPa NNE 2.6 km/h 23.3 km/h 93 % 0 mm
03:22 -15.7 °C -16.3 °C 34750.5 hPa NNE 12.9 km/h 23.3 km/h 93 % 0 mm
03:32 -15.7 °C -16.3 °C 34750.5 hPa NNW 5.1 km/h 28.5 km/h 93 % 0 mm
03:42 -15.9 °C -16.5 °C 34750.5 hPa NNE 7.7 km/h 28.5 km/h 93 % 0 mm
03:47 -15.9 °C -16.5 °C 34750.5 hPa NNE 7.7 km/h 18.2 km/h 93 % 0 mm
03:52 -15.9 °C -16.5 °C 34750.5 hPa NNE 7.7 km/h 18.2 km/h 93 % 0 mm
09:07 -15.8 °C -16.2 °C 34797.9 hPa NE 7.7 km/h -2586.8 km/h 95 % 0 mm
09:12 -15.8 °C -16.2 °C 34797.9 hPa NNE 7.7 km/h 12.9 km/h 95 % 0 mm
09:17 -15.8 °C -16.2 °C 34797.9 hPa NNE 2.6 km/h 12.9 km/h 95 % 0 mm
09:22 -15.8 °C -16.3 °C 34808.1 hPa NE 2.6 km/h 12.9 km/h 94 % 0 mm
09:27 -15.7 °C -16.1 °C 34808.1 hPa Calm   12.9 km/h 95 % 0 mm
09:32 -15.7 °C -16.2 °C 34808.1 hPa NNE 2.6 km/h 12.9 km/h 94 % 0 mm
09:37 -15.7 °C -16.2 °C 34808.1 hPa NNE 2.6 km/h 7.7 km/h 94 % 0 mm
09:42 -15.7 °C -16.2 °C 34808.1 hPa North 5.1 km/h 7.7 km/h 94 % 0 mm
09:47 -15.7 °C -16.2 °C 34808.1 hPa Calm   7.7 km/h 94 % 0 mm
09:52 -15.7 °C -16.2 °C 34808.1 hPa NNE 5.1 km/h 7.7 km/h 94 % 0 mm
09:57 -15.7 °C -16.2 °C 34808.1 hPa NNE 2.6 km/h 7.7 km/h 94 % 0 mm
10:02 -15.7 °C -16.2 °C 34808.1 hPa NE 5.1 km/h 7.7 km/h 94 % 0 mm
10:07 -15.6 °C -16.1 °C 34818.2 hPa NE 7.7 km/h 7.7 km/h 94 % 0 mm
10:12 -15.6 °C -16.1 °C 34818.2 hPa Calm   7.7 km/h 94 % 0 mm
10:17 -15.6 °C -16.1 °C 34818.2 hPa Calm   10.3 km/h 94 % 0 mm
10:22 -15.5 °C -16 °C 34808.1 hPa ENE 2.6 km/h 10.3 km/h 94 % 0 mm
10:32 -15.5 °C -16 °C 34808.1 hPa North 2.6 km/h 7.7 km/h 94 % 0 mm
10:37 -15.5 °C -16.1 °C 34808.1 hPa NE 5.1 km/h 10.3 km/h 93 % 0 mm
10:42 -15.4 °C -16 °C 34808.1 hPa NNE 2.6 km/h 10.3 km/h 93 % 0 mm
10:47 -15.4 °C -16 °C 34808.1 hPa Calm   10.3 km/h 93 % 0 mm
10:52 -15.4 °C -15.9 °C 34808.1 hPa NNW 7.7 km/h 10.3 km/h 93 % 0 mm
10:57 -15.4 °C -15.9 °C 34818.2 hPa NE 5.1 km/h 10.3 km/h 93 % 0 mm
11:02 -15.4 °C -15.9 °C 34818.2 hPa NW 2.6 km/h 10.3 km/h 93 % 0 mm
11:07 -15.3 °C -15.9 °C 34818.2 hPa NNW 2.6 km/h 10.3 km/h 93 % 0 mm
11:12 -15.3 °C -16 °C 34818.2 hPa Calm   10.3 km/h 92 % 0 mm
11:17 -15.3 °C -16 °C 34818.2 hPa North 2.6 km/h 12.9 km/h 92 % 0 mm
11:22 -15.2 °C -15.9 °C 34818.2 hPa NW 5.1 km/h 12.9 km/h 92 % 0 mm
11:32 -15.1 °C -15.7 °C 34818.2 hPa Calm   12.9 km/h 92 % 0 mm
11:42 -14.9 °C -15.6 °C 34808.1 hPa North 5.1 km/h 10.3 km/h 91 % 0 mm
11:47 -14.9 °C -15.7 °C 34808.1 hPa NNE 2.6 km/h 15.6 km/h 90 % 0 mm
11:57 -14.8 °C -15.7 °C 34808.1 hPa NNW 12.9 km/h 15.6 km/h 89 % 0 mm
12:02 -14.7 °C -15.5 °C 34797.9 hPa North 5.1 km/h 15.6 km/h 90 % 0 mm
12:07 -14.6 °C -15.6 °C 34797.9 hPa NW 5.1 km/h 15.6 km/h 89 % 0 mm
12:12 -14.6 °C -15.6 °C 34797.9 hPa NNW 2.6 km/h 15.6 km/h 88 % 0 mm
12:17 -14.6 °C -15.6 °C 34797.9 hPa NW 7.7 km/h 18.2 km/h 88 % 0 mm
12:32 -14.3 °C -15.6 °C 34797.9 hPa NNW 12.9 km/h 20.8 km/h 86 % 0 mm
12:42 -14.2 °C -15.3 °C 34797.9 hPa North 10.3 km/h 20.8 km/h 87 % 0 mm
12:47 -14.2 °C -15.4 °C 34797.9 hPa NNE 7.7 km/h 18.2 km/h 86 % 0 mm
12:52 -14.2 °C -15.4 °C 34797.9 hPa NNW 5.1 km/h 18.2 km/h 86 % 0 mm
12:57 -14.1 °C -15.2 °C 34797.9 hPa NNW 10.3 km/h 18.2 km/h 87 % 0 mm
13:02 -14 °C -15.2 °C 34797.9 hPa WNW 12.9 km/h 18.2 km/h 86 % 0 mm
13:12 -14 °C -15.3 °C 34797.9 hPa NNE 12.9 km/h 18.2 km/h 85 % 0 mm
13:17 -14 °C -15.3 °C 34797.9 hPa NW 12.9 km/h 20.8 km/h 85 % 0 mm
13:22 -14 °C -15.3 °C 34797.9 hPa North 10.3 km/h 20.8 km/h 85 % 0 mm
13:27 -13.9 °C -15.2 °C 34797.9 hPa NNW 5.1 km/h 20.8 km/h 85 % 0 mm
13:32 -13.9 °C -15.3 °C 34797.9 hPa North 5.1 km/h 23.3 km/h 84 % 0 mm
13:37 -13.9 °C -15.3 °C 34797.9 hPa NW 15.6 km/h 23.3 km/h 84 % 0 mm
13:42 -13.9 °C -15.2 °C 34797.9 hPa NW 15.6 km/h 25.9 km/h 85 % 0 mm
13:47 -13.9 °C -15.4 °C 34797.9 hPa NNW 7.7 km/h 25.9 km/h 83 % 0 mm
13:52 -13.9 °C -15.3 °C 34797.9 hPa NNE 7.7 km/h 25.9 km/h 84 % 0 mm
13:57 -13.9 °C -15.3 °C 34797.9 hPa NNW 10.3 km/h 20.8 km/h 84 % 0 mm
14:02 -13.9 °C -15.3 °C 34784.4 hPa West 7.7 km/h 20.8 km/h 84 % 0 mm
14:07 -13.8 °C -15.2 °C 34784.4 hPa WNW 2.6 km/h 20.8 km/h 84 % 0 mm
14:12 -13.8 °C -15.2 °C 34784.4 hPa NNW 15.6 km/h 20.8 km/h 84 % 0 mm
14:17 -13.9 °C -15.4 °C 34784.4 hPa NNE 10.3 km/h 20.8 km/h 83 % 0 mm
14:22 -14 °C -15.4 °C 34784.4 hPa NW 5.1 km/h 28.5 km/h 84 % 0 mm
14:32 -13.9 °C -15.3 °C 34774.2 hPa North 7.7 km/h 28.5 km/h 84 % 0 mm
14:37 -13.8 °C -15.2 °C 34774.2 hPa North 12.9 km/h 28.5 km/h 84 % 0 mm
14:42 -13.8 °C -15.3 °C 34784.4 hPa NNE 10.3 km/h 28.5 km/h 83 % 0 mm
14:47 -13.8 °C -15.4 °C 34784.4 hPa NE 10.3 km/h 20.8 km/h 82 % 0 mm
14:52 -13.8 °C -15.4 °C 34784.4 hPa NNE 12.9 km/h 20.8 km/h 82 % 0 mm
14:57 -13.8 °C -15.4 °C 34784.4 hPa NNW 15.6 km/h 18.2 km/h 82 % 0 mm
15:02 -13.8 °C -15.3 °C 34784.4 hPa NNE 18.2 km/h 23.3 km/h 83 % 0 mm
15:12 -13.8 °C -15.3 °C 34797.9 hPa NNW 10.3 km/h 23.3 km/h 83 % 0 mm
15:17 -13.9 °C -15.4 °C 34797.9 hPa NNW 12.9 km/h 20.8 km/h 83 % 0 mm
15:22 -13.9 °C -15.4 °C 34797.9 hPa NNE 18.2 km/h 20.8 km/h 83 % 0 mm
15:27 -13.9 °C -15.3 °C 34797.9 hPa North 10.3 km/h 20.8 km/h 84 % 0 mm
15:32 -13.8 °C -15.3 °C 34797.9 hPa NE 12.9 km/h 20.8 km/h 83 % 0 mm
15:37 -13.8 °C -15.2 °C 34797.9 hPa NNE 5.1 km/h 18.2 km/h 84 % 0 mm
15:42 -13.8 °C -15.2 °C 34784.4 hPa NNE 10.3 km/h 18.2 km/h 84 % 0 mm
15:47 -13.9 °C -15.4 °C 34784.4 hPa NW 2.6 km/h 18.2 km/h 83 % 0 mm
15:52 -13.9 °C -15.3 °C 34784.4 hPa NNW 7.7 km/h 20.8 km/h 84 % 0 mm
15:57 -13.9 °C -15.3 °C 34784.4 hPa NW 5.1 km/h 20.8 km/h 84 % 0 mm
16:02 -13.9 °C -15.3 °C 34784.4 hPa North 7.7 km/h 20.8 km/h 84 % 0 mm
16:07 -13.9 °C -15.3 °C 34784.4 hPa NNW 2.6 km/h 20.8 km/h 84 % 0 mm
16:12 -14 °C -15.4 °C 34784.4 hPa NNW 5.1 km/h 18.2 km/h 84 % 0 mm
16:17 -14 °C -15.4 °C 34784.4 hPa NNW 5.1 km/h 18.2 km/h 84 % 0 mm
16:22 -14 °C -15.4 °C 34784.4 hPa NNE 5.1 km/h 18.2 km/h 84 % 0 mm
16:27 -14.1 °C -15.4 °C 34784.4 hPa NNE 5.1 km/h 15.6 km/h 84 % 0 mm
16:37 -14.1 °C -15.4 °C 34784.4 hPa NNE 10.3 km/h 12.9 km/h 84 % 0 mm
16:42 -14.2 °C -15.6 °C 34784.4 hPa NNE 5.1 km/h 10.3 km/h 84 % 0 mm
16:47 -14.3 °C -15.6 °C 34784.4 hPa North 5.1 km/h 10.3 km/h 85 % 0 mm
16:52 -14.3 °C -15.6 °C 34784.4 hPa Calm   10.3 km/h 86 % 0 mm
16:57 -14.4 °C -15.6 °C 34797.9 hPa North 5.1 km/h 7.7 km/h 86 % 0 mm
17:02 -14.5 °C -15.7 °C 34797.9 hPa North 2.6 km/h 7.7 km/h 86 % 0 mm
17:07 -14.6 °C -15.8 °C 34797.9 hPa NNE 2.6 km/h 7.7 km/h 86 % 0 mm
17:12 -14.7 °C -15.8 °C 34797.9 hPa Calm   10.3 km/h 87 % 0 mm
17:17 -14.8 °C -15.9 °C 34797.9 hPa NNW 2.6 km/h 10.3 km/h 87 % 0 mm
17:22 -14.9 °C -15.9 °C 34797.9 hPa NNE 5.1 km/h 10.3 km/h 88 % 0 mm
17:32 -15.1 °C -16.1 °C 34797.9 hPa Calm   5.1 km/h 88 % 0 mm
17:37 -15.2 °C -16.1 °C 34797.9 hPa North 2.6 km/h 7.7 km/h 89 % 0 mm
17:42 -15.2 °C -16.1 °C 34797.9 hPa North 2.6 km/h 7.7 km/h 90 % 0 mm
17:47 -15.3 °C -16.1 °C 34797.9 hPa North 5.1 km/h 7.7 km/h 90 % 0 mm
17:52 -15.3 °C -16.1 °C 34797.9 hPa NNW 5.1 km/h 7.7 km/h 90 % 0 mm
17:57 -15.3 °C -16.1 °C 34797.9 hPa NNW 5.1 km/h 7.7 km/h 90 % 0 mm
18:02 -15.2 °C -16.1 °C 34797.9 hPa NNW 7.7 km/h 12.9 km/h 90 % 0 mm
18:12 -15.3 °C -16.2 °C 34797.9 hPa NW 5.1 km/h 12.9 km/h 90 % 0 mm
18:17 -15.3 °C -16.1 °C 34797.9 hPa NNW 5.1 km/h 12.9 km/h 91 % 0 mm
18:22 -15.4 °C -16.1 °C 34797.9 hPa North 2.6 km/h 12.9 km/h 91 % 0 mm
18:27 -15.4 °C -16.1 °C 34797.9 hPa NNW 2.6 km/h 12.9 km/h 91 % 0 mm
18:32 -15.4 °C -16.1 °C 34797.9 hPa NNW 5.1 km/h 12.9 km/h 91 % 0 mm
18:37 -15.4 °C -16.2 °C 34797.9 hPa NNW 7.7 km/h 15.6 km/h 91 % 0 mm
18:47 -15.4 °C -16.2 °C 34797.9 hPa NW 7.7 km/h 18.2 km/h 91 % 0 mm
18:52 -15.5 °C -16.2 °C 34797.9 hPa North 10.3 km/h 18.2 km/h 91 % 0 mm
18:57 -15.5 °C -16.2 °C 34808.1 hPa NW 5.1 km/h 15.6 km/h 91 % 0 mm
19:02 -15.5 °C -16.2 °C 34808.1 hPa North 7.7 km/h 18.2 km/h 92 % 0 mm
19:12 -15.6 °C -16.3 °C 34808.1 hPa NW 5.1 km/h 18.2 km/h 91 % 0 mm
19:17 -15.6 °C -16.3 °C 34808.1 hPa North 7.7 km/h 15.6 km/h 91 % 0 mm
19:22 -15.6 °C -16.3 °C 34808.1 hPa NNW 7.7 km/h 12.9 km/h 91 % 0 mm
19:27 -15.7 °C -16.4 °C 34808.1 hPa North 10.3 km/h 12.9 km/h 91 % 0 mm
19:32 -15.7 °C -16.4 °C 34808.1 hPa NW 5.1 km/h 10.3 km/h 92 % 0 mm
19:42 -15.9 °C -16.6 °C 34808.1 hPa NNE 2.6 km/h 10.3 km/h 92 % 0 mm
19:52 -16 °C -16.7 °C 34808.1 hPa Calm   10.3 km/h 92 % 0 mm
20:02 -16.1 °C -16.8 °C 34808.1 hPa Calm   7.7 km/h 92 % 0 mm
20:07 -16.2 °C -16.7 °C 34808.1 hPa Calm   5.1 km/h 93 % 0 mm
20:12 -16.2 °C -16.8 °C 34808.1 hPa Calm   2.6 km/h 93 % 0 mm
20:22 -16.2 °C -16.8 °C 34808.1 hPa Calm   2.6 km/h 93 % 0 mm
20:27 -16.3 °C -16.8 °C 34818.2 hPa Calm   2.6 km/h 93 % 0 mm
20:32 -16.4 °C -16.9 °C 34818.2 hPa Calm   2.6 km/h 93 % 0 mm
20:42 -16.4 °C -16.9 °C 34818.2 hPa NW 2.6 km/h   94 % 0 mm
20:47 -16.4 °C -16.8 °C 34818.2 hPa NW 2.6 km/h 2.6 km/h 95 % 0 mm
20:52 -16.3 °C -16.8 °C 34818.2 hPa NW 2.6 km/h 2.6 km/h 94 % 0 mm
20:57 -16.3 °C -16.8 °C 34818.2 hPa Calm   2.6 km/h 94 % 0 mm
21:02 -16.4 °C -16.9 °C 34818.2 hPa Calm   2.6 km/h 94 % 0 mm
21:12 -16.7 °C -17.2 °C 34818.2 hPa Calm   2.6 km/h 94 % 0 mm
21:17 -16.6 °C -16.9 °C 34818.2 hPa Calm     95 % 0 mm
21:27 -16.6 °C -16.9 °C 34818.2 hPa Calm   2.6 km/h 95 % 0 mm
21:32 -16.6 °C -17.1 °C 34818.2 hPa Calm   2.6 km/h 94 % 0 mm
21:37 -16.7 °C -17.2 °C 34818.2 hPa NW 2.6 km/h 2.6 km/h 94 % 0 mm
21:42 -16.8 °C -17.2 °C 34808.1 hPa Calm   2.6 km/h 95 % 0 mm
21:47 -16.8 °C -17.2 °C 34808.1 hPa Calm   2.6 km/h 95 % 0 mm
21:52 -16.8 °C -17.2 °C 34818.2 hPa NW 2.6 km/h 2.6 km/h 95 % 0 mm
22:02 -16.8 °C -17.2 °C 34808.1 hPa NW 2.6 km/h 2.6 km/h 95 % 0 mm
22:07 -16.9 °C -17.3 °C 34808.1 hPa Calm   5.1 km/h 95 % 0 mm
22:12 -16.9 °C -17.3 °C 34808.1 hPa Calm   5.1 km/h 95 % 0 mm
22:17 -16.9 °C -17.3 °C 34808.1 hPa Calm   5.1 km/h 95 % 0 mm
22:22 -16.9 °C -17.3 °C 34808.1 hPa Calm   2.6 km/h 95 % 0 mm
22:27 -16.9 °C -17.2 °C 34818.2 hPa NNW 2.6 km/h 2.6 km/h 96 % 0 mm
22:32 -16.9 °C -17.2 °C 34818.2 hPa NNE 2.6 km/h 2.6 km/h 96 % 0 mm
22:37 -16.8 °C -17.1 °C 34808.1 hPa NE 2.6 km/h 2.6 km/h 96 % 0 mm
22:42 -16.7 °C -17.1 °C 34818.2 hPa NE 2.6 km/h 2.6 km/h 96 % 0 mm
22:47 -16.6 °C -16.9 °C 34808.1 hPa NE 2.6 km/h 5.1 km/h 96 % 0 mm
22:57 -16.6 °C -16.9 °C 34818.2 hPa Calm   7.7 km/h 96 % 0 mm
23:02 -16.6 °C -16.9 °C 34808.1 hPa Calm   7.7 km/h 96 % 0 mm
23:12 -16.6 °C -16.9 °C 34808.1 hPa NNE 2.6 km/h 2.6 km/h 96 % 0 mm
23:17 -16.6 °C -16.9 °C 34808.1 hPa NNE 5.1 km/h 5.1 km/h 96 % 0 mm
23:22 -16.6 °C -16.9 °C 34808.1 hPa NNW 2.6 km/h 5.1 km/h 96 % 0 mm
23:27 -16.7 °C -17 °C 34808.1 hPa Calm   7.7 km/h 96 % 0 mm
23:32 -16.7 °C -17.1 °C 34808.1 hPa Calm   7.7 km/h 96 % 0 mm
23:37 -16.8 °C -17.1 °C 34808.1 hPa NE 2.6 km/h 7.7 km/h 96 % 0 mm
23:42 -16.8 °C -17.1 °C 34808.1 hPa NNE 5.1 km/h 5.1 km/h 96 % 0 mm
23:47 -16.8 °C -17.2 °C 34808.1 hPa Calm   7.7 km/h 96 % 0 mm
23:52 -16.8 °C -17.2 °C 34808.1 hPa NNE 5.1 km/h 7.7 km/h 96 % 0 mm
23:57 -16.9 °C -17.2 °C 34808.1 hPa NNW 2.6 km/h 7.7 km/h 96 % 0 mm
Meteo18
Compliments of Weather Underground - 4 mb

Script developed by  Jim McMurry - jmcmurry@mwt.net Adapted for the template by  Wim van der Kuil - Leuven-Template.eu

You find our weather info also at:

European Weather Network

Weather Underground

Equipment we use:

Weather-station
Davis Vue

Weather-program
Meteobridge

Weather-server
Raspberry PI 2 B+

Provider
1 and 1

Davis Vue

Meteobridge

Raspberry PI 2 B+

1 and 1